Accueil
METAR-TAF:

METAR-TAF

Aéroports :

Sarrebruck, Allemagne

Aéroport de Sarrebruck

latitude: 49-13N, longitude: 007-07E, altitude: 322 m

Observation

Le bulletin a été fait il y a 36 minutes, à 20:50 UTC
Vent 5 kt de ouest, variant entre ouest/sud-ouest et nord
Température 6°C
Humidité 52%
Pression 1013 hPa
Visibilité 10 km ou plus
Nuages épars à une hauteur de 2500 ft
Nuages fragmentés à une hauteur de 4000 ft

METAR: EDDR 262050Z 27005KT 240V350 9999 SCT025 BKN040 06/M03 Q1013 NOSIG

Heure: 23:26 (21:26 UTC)

Prévision

Le bulletin a été fait il y a 4 heures et 26 minutes, à 17:00 UTC
Prévision valable du 26 à 18 UTC au 27 à 18 UTC
Vent 5 kt de nord/nord-ouest
Visibilité 10 km ou plus
Nuages épars à une hauteur de 4000 ft
Temporairement
du 26 à 21 UTC au 27 à 08 UTC
Vent 3 kt de direction variable

TAF: EDDR 261700Z 2618/2718 34005KT 9999 SCT040 TEMPO 2621/2708 VRB03KT

Observations et prévisions météorologiques de plus de 4000 aéroports (messages METAR et TAF).

Les stations disponibles sont représentées par des disques jaunes et rouges sur la carte.

Passer la souris dessus pour voir le nom de la station.

Cliquer dessus pour voir les observations et prévisions météorologiques.

Pour changer de carte: cliquez sur les boutons verts avec une croix noire pour zoomer, sur le bouton vert avec un tiret pour effectuer un zoom arrière, ou sur les flèches vertes pour les cartes adjacentes.


METAR-TAF: